createdAt,value
2023-05-01T00:01:09.668Z,100668.59
2023-05-01T00:04:12.130Z,100679.28
2023-05-01T00:07:14.556Z,100684.53
2023-05-01T00:10:20.245Z,100657.25
2023-05-01T00:13:24.332Z,100672.84
2023-05-01T00:16:26.590Z,100660.81
2023-05-01T00:19:31.235Z,100667.09
2023-05-01T00:22:35.756Z,100656.78
2023-05-01T00:25:40.985Z,100667.72
2023-05-01T00:28:43.268Z,100667.19
2023-05-01T00:31:48.379Z,100657.66
2023-05-01T00:34:53.501Z,100671.94
2023-05-01T00:37:55.992Z,100672.09
2023-05-01T00:40:58.368Z,100660.53
2023-05-01T00:44:00.772Z,100672.31
2023-05-01T00:47:05.295Z,100671.16
2023-05-01T00:50:10.885Z,100664.19
2023-05-01T00:53:15.855Z,100667.25
2023-05-01T00:56:21.506Z,100660.34
2023-05-01T00:59:29.262Z,100661.84
2023-05-01T01:02:42.000Z,100673.16
2023-05-01T01:06:11.852Z,100669.66
2023-05-01T01:09:29.108Z,100666.03
2023-05-01T01:12:41.576Z,100678.34
2023-05-01T01:15:49.898Z,100678.50
2023-05-01T01:19:15.080Z,100671.53
2023-05-01T01:22:24.054Z,100672.22
2023-05-01T01:25:49.093Z,100671.53
2023-05-01T01:29:05.404Z,100673.88
2023-05-01T01:32:32.032Z,100674.94
2023-05-01T01:35:36.960Z,100668.84
2023-05-01T01:39:10.604Z,100666.13
2023-05-01T01:42:21.219Z,100677.69
2023-05-01T01:45:29.380Z,100657.88
2023-05-01T01:48:38.349Z,100667.38
2023-05-01T01:51:42.322Z,100663.09
2023-05-01T01:54:58.591Z,100678.97
2023-05-01T01:58:03.786Z,100659.63
2023-05-01T02:01:07.737Z,100678.75
2023-05-01T02:04:13.463Z,100673.50
2023-05-01T02:07:20.339Z,100658.16
2023-05-01T02:10:27.199Z,100664.75
2023-05-01T02:13:31.235Z,100675.16
2023-05-01T02:16:37.372Z,100673.66
2023-05-01T02:19:47.498Z,100674.66
2023-05-01T02:22:55.061Z,100661.03
2023-05-01T02:26:02.089Z,100669.69
2023-05-01T02:29:07.504Z,100675.50
2023-05-01T02:32:10.032Z,100663.31
2023-05-01T02:35:15.051Z,100662.75
2023-05-01T02:38:20.104Z,100686.44
2023-05-01T02:41:26.182Z,100672.00
2023-05-01T02:44:30.582Z,100670.31
2023-05-01T02:47:39.590Z,100672.28
2023-05-01T02:50:46.212Z,100674.09
2023-05-01T02:53:51.376Z,100675.59
2023-05-01T02:56:59.487Z,100681.25
2023-05-01T03:00:02.005Z,100681.06
2023-05-01T03:03:04.402Z,100680.97
2023-05-01T03:06:06.797Z,100676.38
2023-05-01T03:09:11.822Z,100688.97
2023-05-01T03:12:14.140Z,100689.78
2023-05-01T03:15:17.047Z,100681.75
2023-05-01T03:18:19.332Z,100690.84
2023-05-01T03:21:25.234Z,100688.72
2023-05-01T03:24:29.992Z,100696.03
2023-05-01T03:27:32.275Z,100691.00
2023-05-01T03:30:35.285Z,100697.00
2023-05-01T03:33:41.156Z,100692.44
2023-05-01T03:36:46.012Z,100702.03
2023-05-01T03:39:51.710Z,100691.66
2023-05-01T03:43:03.126Z,100704.75
2023-05-01T03:46:05.632Z,100709.75
2023-05-01T03:49:08.020Z,100702.66
2023-05-01T03:52:17.172Z,100701.44
2023-05-01T03:55:22.246Z,100692.66
2023-05-01T03:58:26.332Z,100709.81
2023-05-01T04:01:33.726Z,100694.59
2023-05-01T04:04:36.132Z,100707.63
2023-05-01T04:07:39.108Z,100700.50
2023-05-01T04:10:41.533Z,100699.84
2023-05-01T04:13:44.316Z,100698.34
2023-05-01T04:16:49.309Z,100704.03
2023-05-01T04:19:51.572Z,100695.56
2023-05-01T04:22:56.215Z,100699.97
2023-05-01T04:25:59.126Z,100701.53
2023-05-01T04:29:01.565Z,100699.34
2023-05-01T04:32:06.121Z,100692.38
2023-05-01T04:35:09.467Z,100709.22
2023-05-01T04:38:12.324Z,100711.66
2023-05-01T04:41:19.435Z,100710.44
2023-05-01T04:44:23.055Z,100713.78
2023-05-01T04:47:25.364Z,100720.06
2023-05-01T04:50:27.792Z,100712.00
2023-05-01T04:53:30.951Z,100719.31
2023-05-01T04:56:36.126Z,100717.72
2023-05-01T04:59:38.818Z,100722.06
2023-05-01T05:02:41.247Z,100719.09
2023-05-01T05:05:46.210Z,100724.50
2023-05-01T05:08:52.104Z,100728.16
2023-05-01T05:11:57.005Z,100723.28
2023-05-01T05:15:01.562Z,100723.03
2023-05-01T05:18:09.344Z,100716.50
2023-05-01T05:21:11.688Z,100725.44
2023-05-01T05:24:21.745Z,100736.78
2023-05-01T05:27:23.965Z,100722.16
2023-05-01T05:30:34.456Z,100720.72
2023-05-01T05:33:41.440Z,100728.59
2023-05-01T05:36:48.673Z,100727.25
2023-05-01T05:39:54.466Z,100729.59
2023-05-01T05:43:01.943Z,100739.69
2023-05-01T05:46:05.948Z,100732.03
2023-05-01T05:49:10.391Z,100723.84
2023-05-01T05:52:12.744Z,100726.63
2023-05-01T05:55:17.785Z,100727.94
2023-05-01T05:58:33.723Z,100723.59
2023-05-01T06:01:42.704Z,100733.34
2023-05-01T06:04:45.103Z,100728.41
2023-05-01T06:07:51.537Z,100724.78
2023-05-01T06:10:53.959Z,100735.34
2023-05-01T06:13:57.416Z,100731.56
2023-05-01T06:17:02.287Z,100746.47
2023-05-01T06:20:06.303Z,100727.94
2023-05-01T06:23:09.988Z,100750.53
2023-05-01T06:26:43.586Z,100753.81
2023-05-01T06:29:49.026Z,100757.53
2023-05-01T06:32:53.783Z,100753.28
2023-05-01T06:35:59.620Z,100753.28
2023-05-01T06:39:02.089Z,100740.72
2023-05-01T06:42:07.800Z,100758.22
2023-05-01T06:45:15.037Z,100740.50
2023-05-01T06:48:19.622Z,100741.56
2023-05-01T06:51:22.190Z,100759.19
2023-05-01T06:54:24.504Z,100748.28
2023-05-01T06:57:29.196Z,100743.47
2023-05-01T07:00:39.246Z,100759.16
2023-05-01T07:03:41.620Z,100757.03
2023-05-01T07:06:44.028Z,100751.66
2023-05-01T07:09:46.321Z,100763.09
2023-05-01T07:12:48.608Z,100760.25
2023-05-01T07:15:54.367Z,100740.09
2023-05-01T07:18:57.292Z,100761.31
2023-05-01T07:22:04.920Z,100752.13
2023-05-01T07:25:09.954Z,100751.75
2023-05-01T07:28:12.490Z,100754.25
2023-05-01T07:31:17.229Z,100774.91
2023-05-01T07:34:21.908Z,100756.06
2023-05-01T07:37:24.317Z,100760.66
2023-05-01T07:40:26.815Z,100757.16
2023-05-01T07:43:29.162Z,100748.84
2023-05-01T07:46:31.625Z,100758.63
2023-05-01T07:49:38.631Z,100760.28
2023-05-01T07:52:43.373Z,100750.31
2023-05-01T07:55:50.294Z,100752.13
2023-05-01T07:58:54.772Z,100751.28
2023-05-01T08:01:57.247Z,100762.63
2023-05-01T08:04:59.706Z,100759.69
2023-05-01T08:08:02.122Z,100743.53
2023-05-01T08:11:04.514Z,100760.66
2023-05-01T08:14:09.312Z,100737.72
2023-05-01T08:17:14.140Z,100742.13
2023-05-01T08:20:21.641Z,100739.25
2023-05-01T08:23:25.315Z,100737.41
2023-05-01T08:26:27.699Z,100742.69
2023-05-01T08:29:34.480Z,100736.06
2023-05-01T08:32:36.771Z,100731.94
2023-05-01T08:35:43.792Z,100715.63
2023-05-01T08:38:48.521Z,100732.03
2023-05-01T08:41:58.413Z,100728.41
2023-05-01T08:45:01.593Z,100720.75
2023-05-01T08:48:07.332Z,100738.03
2023-05-01T08:51:13.617Z,100723.28
2023-05-01T08:54:20.402Z,100725.63
2023-05-01T08:57:22.804Z,100730.34
2023-05-01T09:00:25.836Z,100720.88
2023-05-01T09:03:34.495Z,100726.94
2023-05-01T09:06:37.019Z,100736.53
2023-05-01T09:09:43.682Z,100717.09
2023-05-01T09:12:56.560Z,100723.88
2023-05-01T09:16:02.096Z,100721.94
2023-05-01T09:19:04.477Z,100717.06
2023-05-01T09:22:07.564Z,100714.91
2023-05-01T09:25:11.028Z,100716.59
2023-05-01T09:28:15.898Z,100709.97
2023-05-01T09:31:29.808Z,100709.19
2023-05-01T09:34:32.485Z,100724.38
2023-05-01T09:37:37.123Z,100721.56
2023-05-01T09:40:39.534Z,100708.00
2023-05-01T09:43:49.201Z,100709.84
2023-05-01T09:46:54.457Z,100702.09
2023-05-01T09:50:00.076Z,100717.09
2023-05-01T09:53:06.738Z,100692.91
2023-05-01T09:56:09.509Z,100705.72
2023-05-01T09:59:22.195Z,100702.00
2023-05-01T10:02:32.358Z,100703.38
2023-05-01T10:05:44.703Z,100708.88
2023-05-01T10:08:54.351Z,100696.47
2023-05-01T10:11:57.869Z,100693.97
2023-05-01T10:15:07.880Z,100702.97
2023-05-01T10:18:19.929Z,100685.38
2023-05-01T10:21:24.932Z,100686.88
2023-05-01T10:24:31.993Z,100676.09
2023-05-01T10:27:35.580Z,100677.41
2023-05-01T10:30:43.631Z,100683.56
2023-05-01T10:33:47.193Z,100673.59
2023-05-01T10:37:07.138Z,100669.50
2023-05-01T10:40:43.569Z,100666.31
2023-05-01T10:44:23.783Z,100659.50
2023-05-01T10:47:30.701Z,100654.75
2023-05-01T10:50:34.956Z,100654.41
2023-05-01T10:53:38.583Z,100659.88
2023-05-01T10:56:43.374Z,100666.25
2023-05-01T11:00:00.491Z,100646.03
2023-05-01T11:03:21.111Z,100635.88
2023-05-01T11:06:26.863Z,100650.78
2023-05-01T11:09:41.250Z,100641.22
2023-05-01T11:12:46.981Z,100647.00
2023-05-01T11:15:49.421Z,100632.06
2023-05-01T11:18:54.156Z,100622.69
2023-05-01T11:21:57.303Z,100643.13
2023-05-01T11:25:21.694Z,100628.75
2023-05-01T11:28:26.772Z,100619.69
2023-05-01T11:31:29.580Z,100628.31
2023-05-01T11:34:39.818Z,100616.31
2023-05-01T11:37:47.594Z,100620.97
2023-05-01T11:40:55.684Z,100609.47
2023-05-01T11:44:02.879Z,100603.53
2023-05-01T11:47:07.310Z,100600.69
2023-05-01T11:50:13.417Z,100601.47
2023-05-01T11:53:16.624Z,100609.31
2023-05-01T11:56:27.086Z,100592.69
2023-05-01T11:59:30.642Z,100607.19
2023-05-01T12:02:35.379Z,100588.53
2023-05-01T12:05:42.857Z,100593.53
2023-05-01T12:08:51.729Z,100597.03
2023-05-01T12:11:54.641Z,100585.59
2023-05-01T12:14:59.419Z,100590.09
2023-05-01T12:18:03.691Z,100585.81
2023-05-01T12:21:16.312Z,100588.34
2023-05-01T12:24:21.245Z,100584.31
2023-05-01T12:27:28.391Z,100572.69
2023-05-01T12:30:33.276Z,100561.06
2023-05-01T12:33:35.553Z,100560.97
2023-05-01T12:36:40.203Z,100559.31
2023-05-01T12:39:45.022Z,100548.22
2023-05-01T12:42:55.810Z,100562.78
2023-05-01T12:45:58.597Z,100552.00
2023-05-01T12:49:03.479Z,100551.34
2023-05-01T12:52:11.249Z,100535.94
2023-05-01T12:55:13.843Z,100539.09
2023-05-01T12:58:17.232Z,100534.66
2023-05-01T13:01:30.105Z,100537.78
2023-05-01T13:04:37.575Z,100531.69
2023-05-01T13:07:40.229Z,100520.22
2023-05-01T13:10:42.706Z,100532.78
2023-05-01T13:13:46.009Z,100521.69
2023-05-01T13:16:48.838Z,100527.31
2023-05-01T13:20:02.819Z,100512.28
2023-05-01T13:23:13.460Z,100515.72
2023-05-01T13:26:18.323Z,100513.50
2023-05-01T13:29:23.996Z,100517.56
2023-05-01T13:32:26.540Z,100495.22
2023-05-01T13:35:31.684Z,100505.94
2023-05-01T13:38:44.199Z,100508.97
2023-05-01T13:41:49.870Z,100498.53
2023-05-01T13:44:57.148Z,100489.59
2023-05-01T13:48:01.922Z,100486.19
2023-05-01T13:51:07.001Z,100495.03
2023-05-01T13:54:11.022Z,100489.56
2023-05-01T13:57:16.947Z,100492.84
2023-05-01T14:00:22.890Z,100485.22
2023-05-01T14:03:29.211Z,100475.47
2023-05-01T14:06:35.070Z,100470.94
2023-05-01T14:09:42.160Z,100464.81
2023-05-01T14:12:45.762Z,100492.97
2023-05-01T14:15:53.205Z,100472.00
2023-05-01T14:18:58.721Z,100477.31
2023-05-01T14:22:03.476Z,100466.31
2023-05-01T14:25:08.265Z,100469.50
2023-05-01T14:28:15.248Z,100466.06
2023-05-01T14:31:27.571Z,100464.66
2023-05-01T14:34:30.083Z,100465.22
2023-05-01T14:37:37.007Z,100447.50
2023-05-01T14:40:45.849Z,100447.50
2023-05-01T14:43:53.180Z,100444.34
2023-05-01T14:46:58.883Z,100440.72
2023-05-01T14:50:03.628Z,100438.25
2023-05-01T14:53:08.373Z,100426.75
2023-05-01T14:56:11.859Z,100429.78
2023-05-01T14:59:17.031Z,100444.72
2023-05-01T15:02:19.322Z,100441.25
2023-05-01T15:05:21.921Z,100429.03
2023-05-01T15:08:26.808Z,100428.09
2023-05-01T15:11:30.450Z,100439.09
2023-05-01T15:14:32.641Z,100434.22
2023-05-01T15:17:37.714Z,100425.97
2023-05-01T15:20:40.027Z,100428.13
2023-05-01T15:23:45.201Z,100435.88
2023-05-01T15:26:47.560Z,100425.34
2023-05-01T15:29:49.836Z,100425.16
2023-05-01T15:32:55.759Z,100429.34
2023-05-01T15:36:00.361Z,100420.56
2023-05-01T15:39:11.144Z,100409.22
2023-05-01T15:42:13.446Z,100416.06
2023-05-01T15:45:15.844Z,100419.94
2023-05-01T15:48:20.997Z,100414.41
2023-05-01T15:51:26.024Z,100409.94
2023-05-01T15:54:28.259Z,100417.69
2023-05-01T15:57:34.022Z,100425.22
2023-05-01T16:00:38.211Z,100430.75
2023-05-01T16:03:44.995Z,100425.00
2023-05-01T16:06:49.846Z,100419.47
2023-05-01T16:09:52.182Z,100423.91
2023-05-01T16:12:57.779Z,100422.81
2023-05-01T16:16:04.760Z,100424.47
2023-05-01T16:19:07.479Z,100424.53
2023-05-01T16:22:09.804Z,100417.34
2023-05-01T16:25:12.801Z,100418.44
2023-05-01T16:28:18.827Z,100416.31
2023-05-01T16:31:27.398Z,100419.13
2023-05-01T16:34:33.150Z,100406.41
2023-05-01T16:37:39.307Z,100417.19
2023-05-01T16:40:43.767Z,100410.81
2023-05-01T16:43:48.356Z,100418.34
2023-05-01T16:47:01.186Z,100407.66
2023-05-01T16:50:08.473Z,100414.56
2023-05-01T16:53:15.685Z,100420.38
2023-05-01T16:56:18.010Z,100403.84
2023-05-01T16:59:20.333Z,100400.47
2023-05-01T17:02:22.757Z,100415.19
2023-05-01T17:05:25.748Z,100411.66
2023-05-01T17:08:28.323Z,100405.84
2023-05-01T17:11:31.969Z,100403.38
2023-05-01T17:14:39.373Z,100410.56
2023-05-01T17:17:41.646Z,100405.34
2023-05-01T17:20:46.813Z,100405.88
2023-05-01T17:23:52.164Z,100413.91
2023-05-01T17:26:54.461Z,100410.63
2023-05-01T17:29:57.412Z,100403.75
2023-05-01T17:33:00.427Z,100410.66
2023-05-01T17:36:05.391Z,100409.56
2023-05-01T17:39:07.731Z,100409.03
2023-05-01T17:42:10.028Z,100406.00
2023-05-01T17:45:14.827Z,100402.16
2023-05-01T17:48:19.665Z,100406.31
2023-05-01T17:51:24.474Z,100406.88
2023-05-01T17:54:27.044Z,100399.13
2023-05-01T17:57:29.320Z,100395.84
2023-05-01T18:00:35.180Z,100387.03
2023-05-01T18:03:39.670Z,100396.66
2023-05-01T18:06:42.146Z,100405.78
2023-05-01T18:09:44.635Z,100403.31
2023-05-01T18:12:49.791Z,100390.59
2023-05-01T18:15:52.164Z,100399.97
2023-05-01T18:18:54.509Z,100408.53
2023-05-01T18:21:56.941Z,100409.63
2023-05-01T18:24:59.856Z,100404.66
2023-05-01T18:28:02.324Z,100393.88
2023-05-01T18:31:06.963Z,100421.47
2023-05-01T18:34:14.155Z,100416.81
2023-05-01T18:37:16.561Z,100419.00
2023-05-01T18:40:21.071Z,100421.75
2023-05-01T18:43:23.381Z,100417.03
2023-05-01T18:46:25.670Z,100410.69
2023-05-01T18:49:30.109Z,100433.56
2023-05-01T18:52:37.086Z,100428.84
2023-05-01T18:55:39.454Z,100436.59
2023-05-01T18:58:41.745Z,100434.66
2023-05-01T19:01:44.048Z,100436.56
2023-05-01T19:04:57.286Z,100445.09
2023-05-01T19:08:05.235Z,100445.34
2023-05-01T19:11:33.897Z,100438.16
2023-05-01T19:14:37.645Z,100440.88
2023-05-01T19:17:39.944Z,100430.34
2023-05-01T19:20:42.488Z,100445.22
2023-05-01T19:23:48.104Z,100441.84
2023-05-01T19:26:52.838Z,100436.34
2023-05-01T19:29:55.155Z,100439.31
2023-05-01T19:33:00.419Z,100425.47
2023-05-01T19:36:02.686Z,100440.59
2023-05-01T19:39:04.854Z,100440.53
2023-05-01T19:42:07.378Z,100432.78
2023-05-01T19:45:10.008Z,100431.13
2023-05-01T19:48:12.476Z,100436.06
2023-05-01T19:51:20.536Z,100430.03
2023-05-01T19:54:23.173Z,100431.59
2023-05-01T19:57:27.649Z,100436.00
2023-05-01T20:00:30.110Z,100435.69
2023-05-01T20:03:32.607Z,100438.13
2023-05-01T20:06:37.492Z,100445.78
2023-05-01T20:09:42.536Z,100441.41
2023-05-01T20:12:44.786Z,100443.69
2023-05-01T20:15:47.042Z,100445.84
2023-05-01T20:18:54.578Z,100444.81
2023-05-01T20:21:56.821Z,100442.06
2023-05-01T20:25:01.572Z,100432.69
2023-05-01T20:28:07.626Z,100448.09
2023-05-01T20:31:10.904Z,100435.94
2023-05-01T20:34:13.214Z,100441.97
2023-05-01T20:37:17.585Z,100444.66
2023-05-01T20:40:19.864Z,100428.53
2023-05-01T20:43:24.316Z,100443.72
2023-05-01T20:46:29.143Z,100448.13
2023-05-01T20:49:31.474Z,100454.56
2023-05-01T20:52:36.748Z,100457.47
2023-05-01T20:55:41.255Z,100459.97
2023-05-01T20:58:45.857Z,100465.16
2023-05-01T21:01:49.616Z,100468.19
2023-05-01T21:04:59.690Z,100465.97
2023-05-01T21:08:04.715Z,100469.75
2023-05-01T21:11:06.919Z,100456.16
2023-05-01T21:14:11.387Z,100469.56
2023-05-01T21:17:18.556Z,100471.78
2023-05-01T21:20:31.310Z,100473.97
2023-05-01T21:23:33.623Z,100442.25
2023-05-01T21:26:35.918Z,100468.50
2023-05-01T21:29:40.801Z,100476.19
2023-05-01T21:32:45.492Z,100465.75
2023-05-01T21:35:48.491Z,100484.84
2023-05-01T21:38:50.863Z,100480.97
2023-05-01T21:41:55.706Z,100478.59
2023-05-01T21:45:06.855Z,100484.84
2023-05-01T21:48:14.037Z,100492.25
2023-05-01T21:51:19.110Z,100475.66
2023-05-01T21:54:23.840Z,100481.81
2023-05-01T21:57:26.119Z,100479.50
2023-05-01T22:00:31.793Z,100483.66
2023-05-01T22:03:34.573Z,100483.03
2023-05-01T22:06:40.425Z,100479.72
2023-05-01T22:09:42.724Z,100484.69
2023-05-01T22:12:50.359Z,100479.75
2023-05-01T22:15:52.611Z,100471.41
2023-05-01T22:18:55.426Z,100476.66
2023-05-01T22:21:57.681Z,100476.41
2023-05-01T22:25:02.460Z,100460.41
2023-05-01T22:28:06.049Z,100470.78
2023-05-01T22:31:08.518Z,100478.25
2023-05-01T22:34:12.971Z,100474.66
2023-05-01T22:37:15.776Z,100474.09
2023-05-01T22:40:18.157Z,100471.09
2023-05-01T22:43:25.421Z,100472.25
2023-05-01T22:46:32.609Z,100472.63
2023-05-01T22:49:37.411Z,100475.13
2023-05-01T22:52:43.179Z,100476.84
2023-05-01T22:55:51.574Z,100473.53
2023-05-01T22:58:56.074Z,100469.16
2023-05-01T23:01:58.455Z,100473.97
2023-05-01T23:05:00.844Z,100465.94
2023-05-01T23:08:05.638Z,100474.19
2023-05-01T23:11:11.200Z,100464.44
2023-05-01T23:14:17.026Z,100468.03
2023-05-01T23:17:22.080Z,100476.38
2023-05-01T23:20:24.549Z,100466.34
2023-05-01T23:23:30.790Z,100463.59
2023-05-01T23:26:35.856Z,100471.75
2023-05-01T23:29:41.827Z,100469.44
2023-05-01T23:32:44.238Z,100472.13
2023-05-01T23:35:46.563Z,100452.69
2023-05-01T23:38:54.108Z,100480.00
2023-05-01T23:41:56.420Z,100472.03
2023-05-01T23:45:01.411Z,100467.72
2023-05-01T23:48:06.440Z,100475.97
2023-05-01T23:51:11.248Z,100470.66
2023-05-01T23:54:16.064Z,100471.16
2023-05-01T23:57:20.720Z,100458.53
